Powderville, Montana
Current Conditions -  °F | °C
As of 8:51 PM on Saturday 25 Oct 2014 (Local Time) from KBHK Reporting Station
Clear Clear  
Wind Chill: 12°   Ceiling: Unl
Heat Index: 12°   Visibility: 10mi
Dew Point:   Wind: 24mph
Humidity: 43%   Direction: 140°SE
Pressure: 29.79"   Gusts: NA
Location:  45.76°N, 105.11°W
Report Text: KBHK 260251Z AUTO 14021KT 10SM CLR 12/00 A2979 RMK AO2 PK WND 14032/0230 SLP088 T01220000 58029
Loading
Personal Weather Stations






























Interactive Weather Map
Tropical Storm Tracking
New forecast layout! Learn more

10-Day Weather Forecast

Advertisements
Track Severe Weather on mobile